sensor_id;sensor_type;location;lat;lon;timestamp;P1;durP1;ratioP1;P2;durP2;ratioP2
68821;SDS011;55834;50.870;4.606;2023-04-03T00:00:54;4.80;;;4.22;;
68821;SDS011;55834;50.870;4.606;2023-04-03T00:03:19;8.67;;;4.43;;
68821;SDS011;55834;50.870;4.606;2023-04-03T00:05:45;10.23;;;4.43;;
68821;SDS011;55834;50.870;4.606;2023-04-03T00:08:11;8.65;;;5.18;;
68821;SDS011;55834;50.870;4.606;2023-04-03T00:10:37;6.75;;;3.95;;
68821;SDS011;55834;50.870;4.606;2023-04-03T00:13:03;8.02;;;5.88;;
68821;SDS011;55834;50.870;4.606;2023-04-03T00:15:30;7.60;;;4.05;;
68821;SDS011;55834;50.870;4.606;2023-04-03T00:17:55;8.35;;;4.65;;
68821;SDS011;55834;50.870;4.606;2023-04-03T00:20:21;6.40;;;4.28;;
68821;SDS011;55834;50.870;4.606;2023-04-03T00:22:46;7.70;;;4.20;;
68821;SDS011;55834;50.870;4.606;2023-04-03T00:25:12;7.30;;;4.75;;
68821;SDS011;55834;50.870;4.606;2023-04-03T00:27:38;6.70;;;4.30;;
68821;SDS011;55834;50.870;4.606;2023-04-03T00:30:05;5.28;;;3.50;;
68821;SDS011;55834;50.870;4.606;2023-04-03T00:32:31;5.45;;;3.60;;
68821;SDS011;55834;50.870;4.606;2023-04-03T00:34:57;5.05;;;3.45;;
68821;SDS011;55834;50.870;4.606;2023-04-03T00:37:22;5.22;;;3.80;;
68821;SDS011;55834;50.870;4.606;2023-04-03T00:39:48;7.90;;;4.18;;
68821;SDS011;55834;50.870;4.606;2023-04-03T00:42:13;7.37;;;3.80;;
68821;SDS011;55834;50.870;4.606;2023-04-03T00:47:05;6.93;;;3.65;;
68821;SDS011;55834;50.870;4.606;2023-04-03T00:49:33;5.63;;;3.58;;
68821;SDS011;55834;50.870;4.606;2023-04-03T00:52:00;7.63;;;4.30;;
68821;SDS011;55834;50.870;4.606;2023-04-03T00:54:26;7.05;;;3.40;;
68821;SDS011;55834;50.870;4.606;2023-04-03T00:56:52;4.28;;;3.42;;
68821;SDS011;55834;50.870;4.606;2023-04-03T00:59:24;6.90;;;3.60;;
68821;SDS011;55834;50.870;4.606;2023-04-03T01:01:55;4.93;;;3.72;;
68821;SDS011;55834;50.870;4.606;2023-04-03T01:04:34;6.43;;;4.07;;
68821;SDS011;55834;50.870;4.606;2023-04-03T01:07:05;5.35;;;4.32;;
68821;SDS011;55834;50.870;4.606;2023-04-03T01:09:33;5.20;;;3.22;;
68821;SDS011;55834;50.870;4.606;2023-04-03T01:12:15;5.50;;;4.00;;
68821;SDS011;55834;50.870;4.606;2023-04-03T01:28:22;5.97;;;4.22;;
68821;SDS011;55834;50.870;4.606;2023-04-03T01:33:19;6.07;;;4.00;;
68821;SDS011;55834;50.870;4.606;2023-04-03T01:35:45;6.45;;;4.18;;
68821;SDS011;55834;50.870;4.606;2023-04-03T01:38:10;5.70;;;3.83;;
68821;SDS011;55834;50.870;4.606;2023-04-03T01:40:36;5.75;;;3.15;;
68821;SDS011;55834;50.870;4.606;2023-04-03T01:43:01;5.80;;;4.05;;
68821;SDS011;55834;50.870;4.606;2023-04-03T01:45:27;6.80;;;3.80;;
68821;SDS011;55834;50.870;4.606;2023-04-03T01:47:52;5.10;;;3.03;;
68821;SDS011;55834;50.870;4.606;2023-04-03T01:50:17;5.27;;;3.50;;
68821;SDS011;55834;50.870;4.606;2023-04-03T01:52:43;7.17;;;4.07;;
68821;SDS011;55834;50.870;4.606;2023-04-03T01:55:08;5.75;;;4.03;;
68821;SDS011;55834;50.870;4.606;2023-04-03T01:57:34;4.82;;;3.72;;
68821;SDS011;55834;50.870;4.606;2023-04-03T01:59:59;7.03;;;3.87;;
68821;SDS011;55834;50.870;4.606;2023-04-03T02:02:24;4.53;;;3.70;;
68821;SDS011;55834;50.870;4.606;2023-04-03T02:04:50;5.07;;;3.33;;
68821;SDS011;55834;50.870;4.606;2023-04-03T02:07:15;5.57;;;3.77;;
68821;SDS011;55834;50.870;4.606;2023-04-03T02:09:41;6.43;;;3.35;;
68821;SDS011;55834;50.870;4.606;2023-04-03T02:12:06;5.60;;;3.37;;
68821;SDS011;55834;50.870;4.606;2023-04-03T02:14:31;3.70;;;3.20;;
68821;SDS011;55834;50.870;4.606;2023-04-03T02:16:57;7.80;;;4.18;;
68821;SDS011;55834;50.870;4.606;2023-04-03T02:19:22;5.33;;;3.30;;
68821;SDS011;55834;50.870;4.606;2023-04-03T02:21:48;4.63;;;3.80;;
68821;SDS011;55834;50.870;4.606;2023-04-03T02:24:13;8.53;;;4.03;;
68821;SDS011;55834;50.870;4.606;2023-04-03T02:26:38;7.77;;;5.27;;
68821;SDS011;55834;50.870;4.606;2023-04-03T02:29:04;8.17;;;3.90;;
68821;SDS011;55834;50.870;4.606;2023-04-03T02:31:29;5.38;;;3.05;;
68821;SDS011;55834;50.870;4.606;2023-04-03T02:33:55;5.57;;;3.47;;
68821;SDS011;55834;50.870;4.606;2023-04-03T02:36:20;5.83;;;3.47;;
68821;SDS011;55834;50.870;4.606;2023-04-03T02:38:46;7.55;;;3.55;;
68821;SDS011;55834;50.870;4.606;2023-04-03T02:41:11;4.33;;;3.43;;
68821;SDS011;55834;50.870;4.606;2023-04-03T02:43:38;6.72;;;3.22;;
68821;SDS011;55834;50.870;4.606;2023-04-03T02:46:04;4.80;;;3.60;;
68821;SDS011;55834;50.870;4.606;2023-04-03T02:48:30;5.72;;;3.70;;
68821;SDS011;55834;50.870;4.606;2023-04-03T02:50:57;6.15;;;3.70;;
68821;SDS011;55834;50.870;4.606;2023-04-03T02:53:22;4.60;;;3.10;;
68821;SDS011;55834;50.870;4.606;2023-04-03T02:55:48;7.50;;;4.63;;
68821;SDS011;55834;50.870;4.606;2023-04-03T02:58:13;4.20;;;3.40;;
68821;SDS011;55834;50.870;4.606;2023-04-03T03:00:39;5.57;;;3.55;;
68821;SDS011;55834;50.870;4.606;2023-04-03T03:03:05;3.83;;;3.38;;
68821;SDS011;55834;50.870;4.606;2023-04-03T03:05:31;4.93;;;3.95;;
68821;SDS011;55834;50.870;4.606;2023-04-03T03:07:57;6.50;;;3.55;;
68821;SDS011;55834;50.870;4.606;2023-04-03T03:10:22;4.63;;;3.10;;
68821;SDS011;55834;50.870;4.606;2023-04-03T03:12:48;3.15;;;2.85;;
68821;SDS011;55834;50.870;4.606;2023-04-03T03:15:14;3.72;;;3.20;;
68821;SDS011;55834;50.870;4.606;2023-04-03T03:17:41;7.55;;;4.50;;
68821;SDS011;55834;50.870;4.606;2023-04-03T03:20:07;5.40;;;3.55;;
68821;SDS011;55834;50.870;4.606;2023-04-03T03:22:33;5.75;;;3.45;;
68821;SDS011;55834;50.870;4.606;2023-04-03T03:25:00;3.55;;;3.25;;
68821;SDS011;55834;50.870;4.606;2023-04-03T03:27:26;6.93;;;3.63;;
68821;SDS011;55834;50.870;4.606;2023-04-03T03:29:51;8.35;;;4.65;;
68821;SDS011;55834;50.870;4.606;2023-04-03T03:32:17;7.35;;;5.15;;
68821;SDS011;55834;50.870;4.606;2023-04-03T03:34:42;4.75;;;3.92;;
68821;SDS011;55834;50.870;4.606;2023-04-03T03:37:08;4.67;;;3.30;;
68821;SDS011;55834;50.870;4.606;2023-04-03T03:39:33;6.10;;;3.53;;
68821;SDS011;55834;50.870;4.606;2023-04-03T03:41:58;5.67;;;4.57;;
68821;SDS011;55834;50.870;4.606;2023-04-03T03:44:24;6.40;;;4.40;;
68821;SDS011;55834;50.870;4.606;2023-04-03T03:46:49;6.85;;;4.15;;
68821;SDS011;55834;50.870;4.606;2023-04-03T03:49:15;8.63;;;4.20;;
68821;SDS011;55834;50.870;4.606;2023-04-03T03:51:40;9.57;;;5.87;;
68821;SDS011;55834;50.870;4.606;2023-04-03T03:54:06;5.90;;;4.28;;
68821;SDS011;55834;50.870;4.606;2023-04-03T03:56:31;7.93;;;3.92;;
68821;SDS011;55834;50.870;4.606;2023-04-03T03:58:58;5.32;;;4.20;;
68821;SDS011;55834;50.870;4.606;2023-04-03T04:01:24;4.50;;;4.10;;
68821;SDS011;55834;50.870;4.606;2023-04-03T04:03:50;7.38;;;4.82;;
68821;SDS011;55834;50.870;4.606;2023-04-03T04:06:15;6.68;;;4.55;;
68821;SDS011;55834;50.870;4.606;2023-04-03T04:08:41;10.70;;;4.75;;
68821;SDS011;55834;50.870;4.606;2023-04-03T04:11:07;7.95;;;4.97;;
68821;SDS011;55834;50.870;4.606;2023-04-03T04:13:32;7.13;;;5.13;;
68821;SDS011;55834;50.870;4.606;2023-04-03T04:15:58;6.28;;;4.43;;
68821;SDS011;55834;50.870;4.606;2023-04-03T04:18:23;6.68;;;4.05;;
68821;SDS011;55834;50.870;4.606;2023-04-03T04:20:49;5.95;;;4.07;;
68821;SDS011;55834;50.870;4.606;2023-04-03T04:23:15;7.07;;;4.05;;
68821;SDS011;55834;50.870;4.606;2023-04-03T04:25:43;6.20;;;4.53;;
68821;SDS011;55834;50.870;4.606;2023-04-03T04:28:10;7.70;;;4.25;;
68821;SDS011;55834;50.870;4.606;2023-04-03T04:30:35;5.60;;;4.37;;
68821;SDS011;55834;50.870;4.606;2023-04-03T04:33:00;8.67;;;4.07;;
68821;SDS011;55834;50.870;4.606;2023-04-03T04:35:26;5.00;;;3.40;;
68821;SDS011;55834;50.870;4.606;2023-04-03T04:37:51;7.90;;;4.57;;
68821;SDS011;55834;50.870;4.606;2023-04-03T04:40:17;20.40;;;6.13;;
68821;SDS011;55834;50.870;4.606;2023-04-03T04:42:42;7.68;;;4.68;;
68821;SDS011;55834;50.870;4.606;2023-04-03T04:45:08;14.33;;;6.70;;
68821;SDS011;55834;50.870;4.606;2023-04-03T04:47:33;6.65;;;4.55;;
68821;SDS011;55834;50.870;4.606;2023-04-03T04:49:59;6.82;;;5.22;;
68821;SDS011;55834;50.870;4.606;2023-04-03T04:52:24;8.50;;;5.20;;
68821;SDS011;55834;50.870;4.606;2023-04-03T04:54:50;10.63;;;5.07;;
68821;SDS011;55834;50.870;4.606;2023-04-03T04:57:15;8.70;;;5.45;;
68821;SDS011;55834;50.870;4.606;2023-04-03T04:59:40;7.90;;;5.67;;
68821;SDS011;55834;50.870;4.606;2023-04-03T05:02:06;7.80;;;5.80;;
68821;SDS011;55834;50.870;4.606;2023-04-03T05:04:31;9.50;;;5.33;;
68821;SDS011;55834;50.870;4.606;2023-04-03T05:06:56;7.27;;;5.20;;
68821;SDS011;55834;50.870;4.606;2023-04-03T05:09:22;7.33;;;4.93;;
68821;SDS011;55834;50.870;4.606;2023-04-03T05:11:47;6.93;;;4.90;;
68821;SDS011;55834;50.870;4.606;2023-04-03T05:14:12;7.10;;;5.47;;
68821;SDS011;55834;50.870;4.606;2023-04-03T05:16:38;6.15;;;5.30;;
68821;SDS011;55834;50.870;4.606;2023-04-03T05:19:03;7.93;;;4.85;;
68821;SDS011;55834;50.870;4.606;2023-04-03T05:21:29;6.97;;;5.03;;
68821;SDS011;55834;50.870;4.606;2023-04-03T05:23:57;6.85;;;4.78;;
68821;SDS011;55834;50.870;4.606;2023-04-03T05:26:29;7.68;;;5.07;;
68821;SDS011;55834;50.870;4.606;2023-04-03T05:29:00;7.20;;;4.93;;
68821;SDS011;55834;50.870;4.606;2023-04-03T05:31:26;6.53;;;4.70;;
68821;SDS011;55834;50.870;4.606;2023-04-03T05:33:54;6.05;;;4.50;;
68821;SDS011;55834;50.870;4.606;2023-04-03T05:36:20;8.05;;;4.82;;
68821;SDS011;55834;50.870;4.606;2023-04-03T05:38:45;6.65;;;5.32;;
68821;SDS011;55834;50.870;4.606;2023-04-03T05:41:11;5.72;;;5.00;;
68821;SDS011;55834;50.870;4.606;2023-04-03T05:43:37;9.65;;;5.05;;
68821;SDS011;55834;50.870;4.606;2023-04-03T05:46:04;9.20;;;5.72;;
68821;SDS011;55834;50.870;4.606;2023-04-03T05:48:34;6.88;;;5.10;;
68821;SDS011;55834;50.870;4.606;2023-04-03T05:51:00;10.85;;;6.00;;
68821;SDS011;55834;50.870;4.606;2023-04-03T05:53:27;11.13;;;6.07;;
68821;SDS011;55834;50.870;4.606;2023-04-03T05:55:54;9.70;;;5.82;;
68821;SDS011;55834;50.870;4.606;2023-04-03T05:58:20;8.00;;;5.93;;
68821;SDS011;55834;50.870;4.606;2023-04-03T06:00:45;8.77;;;5.13;;
68821;SDS011;55834;50.870;4.606;2023-04-03T06:03:11;9.75;;;6.60;;
68821;SDS011;55834;50.870;4.606;2023-04-03T06:05:37;11.55;;;6.38;;
68821;SDS011;55834;50.870;4.606;2023-04-03T06:08:02;8.63;;;6.13;;
68821;SDS011;55834;50.870;4.606;2023-04-03T06:10:28;11.85;;;6.85;;
68821;SDS011;55834;50.870;4.606;2023-04-03T06:12:53;9.50;;;6.18;;
68821;SDS011;55834;50.870;4.606;2023-04-03T06:15:20;9.20;;;6.50;;
68821;SDS011;55834;50.870;4.606;2023-04-03T06:20:12;13.93;;;6.23;;
68821;SDS011;55834;50.870;4.606;2023-04-03T06:22:38;8.85;;;6.70;;
68821;SDS011;55834;50.870;4.606;2023-04-03T06:25:03;11.45;;;6.22;;
68821;SDS011;55834;50.870;4.606;2023-04-03T06:27:29;9.20;;;5.43;;
68821;SDS011;55834;50.870;4.606;2023-04-03T06:29:55;8.13;;;6.43;;
68821;SDS011;55834;50.870;4.606;2023-04-03T06:32:21;8.98;;;6.95;;
68821;SDS011;55834;50.870;4.606;2023-04-03T06:34:46;11.53;;;6.07;;
68821;SDS011;55834;50.870;4.606;2023-04-03T06:37:18;8.07;;;6.00;;
68821;SDS011;55834;50.870;4.606;2023-04-03T06:39:46;8.65;;;6.20;;
68821;SDS011;55834;50.870;4.606;2023-04-03T06:42:11;11.13;;;6.68;;
68821;SDS011;55834;50.870;4.606;2023-04-03T06:44:38;8.57;;;6.32;;
68821;SDS011;55834;50.870;4.606;2023-04-03T06:47:03;13.65;;;9.30;;
68821;SDS011;55834;50.870;4.606;2023-04-03T06:49:29;16.52;;;10.43;;
68821;SDS011;55834;50.870;4.606;2023-04-03T06:51:54;10.27;;;7.28;;
68821;SDS011;55834;50.870;4.606;2023-04-03T06:54:21;11.15;;;8.18;;
68821;SDS011;55834;50.870;4.606;2023-04-03T06:56:47;9.95;;;7.22;;
68821;SDS011;55834;50.870;4.606;2023-04-03T06:59:13;10.65;;;6.75;;
68821;SDS011;55834;50.870;4.606;2023-04-03T07:01:39;8.30;;;6.88;;
68821;SDS011;55834;50.870;4.606;2023-04-03T07:04:05;7.95;;;6.35;;
68821;SDS011;55834;50.870;4.606;2023-04-03T07:06:31;9.35;;;6.55;;
68821;SDS011;55834;50.870;4.606;2023-04-03T07:08:58;10.27;;;6.57;;
68821;SDS011;55834;50.870;4.606;2023-04-03T07:11:23;7.80;;;5.95;;
68821;SDS011;55834;50.870;4.606;2023-04-03T07:13:49;8.60;;;6.30;;
68821;SDS011;55834;50.870;4.606;2023-04-03T07:16:15;7.65;;;6.40;;
68821;SDS011;55834;50.870;4.606;2023-04-03T07:18:40;13.83;;;6.80;;
68821;SDS011;55834;50.870;4.606;2023-04-03T07:21:06;9.38;;;6.32;;
68821;SDS011;55834;50.870;4.606;2023-04-03T07:23:32;9.77;;;6.05;;
68821;SDS011;55834;50.870;4.606;2023-04-03T07:25:58;7.80;;;5.35;;
68821;SDS011;55834;50.870;4.606;2023-04-03T07:28:23;9.47;;;5.70;;
68821;SDS011;55834;50.870;4.606;2023-04-03T07:30:50;6.90;;;5.45;;
68821;SDS011;55834;50.870;4.606;2023-04-03T07:33:38;6.65;;;4.30;;
68821;SDS011;55834;50.870;4.606;2023-04-03T07:36:04;6.90;;;4.55;;
68821;SDS011;55834;50.870;4.606;2023-04-03T07:38:31;6.43;;;4.90;;
68821;SDS011;55834;50.870;4.606;2023-04-03T07:40:57;8.30;;;6.20;;
68821;SDS011;55834;50.870;4.606;2023-04-03T07:43:23;5.50;;;4.75;;
68821;SDS011;55834;50.870;4.606;2023-04-03T07:46:09;5.88;;;4.88;;
68821;SDS011;55834;50.870;4.606;2023-04-03T07:48:35;6.75;;;5.85;;
68821;SDS011;55834;50.870;4.606;2023-04-03T07:51:01;10.93;;;8.50;;
68821;SDS011;55834;50.870;4.606;2023-04-03T07:53:29;7.55;;;5.32;;
68821;SDS011;55834;50.870;4.606;2023-04-03T07:55:55;7.10;;;4.85;;
68821;SDS011;55834;50.870;4.606;2023-04-03T07:58:22;5.22;;;3.88;;
68821;SDS011;55834;50.870;4.606;2023-04-03T08:00:47;8.23;;;4.22;;
68821;SDS011;55834;50.870;4.606;2023-04-03T08:03:13;5.65;;;4.97;;
68821;SDS011;55834;50.870;4.606;2023-04-03T08:05:41;6.13;;;5.32;;
68821;SDS011;55834;50.870;4.606;2023-04-03T08:08:08;5.03;;;4.53;;
68821;SDS011;55834;50.870;4.606;2023-04-03T08:10:34;8.00;;;5.45;;
68821;SDS011;55834;50.870;4.606;2023-04-03T08:13:00;7.32;;;6.60;;
68821;SDS011;55834;50.870;4.606;2023-04-03T08:15:26;4.93;;;4.53;;
68821;SDS011;55834;50.870;4.606;2023-04-03T08:17:52;4.35;;;3.92;;
68821;SDS011;55834;50.870;4.606;2023-04-03T08:20:18;6.32;;;5.47;;
68821;SDS011;55834;50.870;4.606;2023-04-03T08:22:43;5.17;;;4.30;;
68821;SDS011;55834;50.870;4.606;2023-04-03T08:25:09;6.63;;;4.57;;
68821;SDS011;55834;50.870;4.606;2023-04-03T08:27:34;8.57;;;5.05;;
68821;SDS011;55834;50.870;4.606;2023-04-03T08:30:00;5.22;;;3.65;;
68821;SDS011;55834;50.870;4.606;2023-04-03T08:32:28;3.95;;;3.45;;
68821;SDS011;55834;50.870;4.606;2023-04-03T08:34:54;6.50;;;5.28;;
68821;SDS011;55834;50.870;4.606;2023-04-03T08:37:19;4.53;;;2.83;;
68821;SDS011;55834;50.870;4.606;2023-04-03T08:39:45;7.57;;;4.40;;
68821;SDS011;55834;50.870;4.606;2023-04-03T08:42:24;6.18;;;3.60;;
68821;SDS011;55834;50.870;4.606;2023-04-03T08:45:10;4.10;;;3.53;;
68821;SDS011;55834;50.870;4.606;2023-04-03T08:47:40;5.07;;;3.33;;
68821;SDS011;55834;50.870;4.606;2023-04-03T08:50:12;3.00;;;2.75;;
68821;SDS011;55834;50.870;4.606;2023-04-03T08:52:45;3.50;;;3.15;;
68821;SDS011;55834;50.870;4.606;2023-04-03T08:55:21;4.97;;;3.35;;
68821;SDS011;55834;50.870;4.606;2023-04-03T08:57:53;4.93;;;3.53;;
68821;SDS011;55834;50.870;4.606;2023-04-03T09:00:29;3.22;;;2.92;;
68821;SDS011;55834;50.870;4.606;2023-04-03T09:02:59;4.70;;;2.60;;
68821;SDS011;55834;50.870;4.606;2023-04-03T09:08:12;3.03;;;2.70;;
68821;SDS011;55834;50.870;4.606;2023-04-03T09:10:46;5.60;;;2.42;;
68821;SDS011;55834;50.870;4.606;2023-04-03T09:13:19;4.60;;;2.67;;
68821;SDS011;55834;50.870;4.606;2023-04-03T09:15:49;4.07;;;2.20;;
68821;SDS011;55834;50.870;4.606;2023-04-03T09:18:26;2.08;;;1.88;;
68821;SDS011;55834;50.870;4.606;2023-04-03T09:21:14;3.15;;;2.25;;
68821;SDS011;55834;50.870;4.606;2023-04-03T09:23:47;2.40;;;1.77;;
68821;SDS011;55834;50.870;4.606;2023-04-03T09:26:23;6.47;;;2.55;;
68821;SDS011;55834;50.870;4.606;2023-04-03T09:29:00;3.38;;;2.42;;
68821;SDS011;55834;50.870;4.606;2023-04-03T09:31:35;4.47;;;2.33;;
68821;SDS011;55834;50.870;4.606;2023-04-03T09:36:58;4.82;;;3.67;;
68821;SDS011;55834;50.870;4.606;2023-04-03T09:39:30;4.18;;;2.03;;
68821;SDS011;55834;50.870;4.606;2023-04-03T09:42:04;3.25;;;1.92;;
68821;SDS011;55834;50.870;4.606;2023-04-03T09:44:48;4.95;;;2.25;;
68821;SDS011;55834;50.870;4.606;2023-04-03T09:47:26;3.17;;;2.60;;
68821;SDS011;55834;50.870;4.606;2023-04-03T09:52:39;2.97;;;2.78;;
68821;SDS011;55834;50.870;4.606;2023-04-03T09:55:15;3.63;;;2.30;;
68821;SDS011;55834;50.870;4.606;2023-04-03T09:57:51;3.83;;;2.63;;
68821;SDS011;55834;50.870;4.606;2023-04-03T10:00:22;3.42;;;2.50;;
68821;SDS011;55834;50.870;4.606;2023-04-03T10:02:56;6.05;;;2.97;;
68821;SDS011;55834;50.870;4.606;2023-04-03T10:05:27;4.72;;;2.38;;
68821;SDS011;55834;50.870;4.606;2023-04-03T10:10:41;3.90;;;3.15;;
68821;SDS011;55834;50.870;4.606;2023-04-03T10:13:18;3.80;;;2.92;;
68821;SDS011;55834;50.870;4.606;2023-04-03T10:15:48;2.88;;;2.00;;
68821;SDS011;55834;50.870;4.606;2023-04-03T10:21:26;4.18;;;1.80;;
68821;SDS011;55834;50.870;4.606;2023-04-03T10:26:59;3.05;;;1.65;;
68821;SDS011;55834;50.870;4.606;2023-04-03T10:34:38;2.28;;;1.85;;
68821;SDS011;55834;50.870;4.606;2023-04-03T10:40:02;6.47;;;2.05;;
68821;SDS011;55834;50.870;4.606;2023-04-03T10:43:24;4.53;;;2.38;;
68821;SDS011;55834;50.870;4.606;2023-04-03T10:45:50;2.13;;;1.90;;
68821;SDS011;55834;50.870;4.606;2023-04-03T10:54:11;3.58;;;1.80;;
68821;SDS011;55834;50.870;4.606;2023-04-03T11:01:48;1.58;;;1.35;;
68821;SDS011;55834;50.870;4.606;2023-04-03T11:04:25;4.70;;;1.33;;
68821;SDS011;55834;50.870;4.606;2023-04-03T11:07:00;3.28;;;1.60;;
68821;SDS011;55834;50.870;4.606;2023-04-03T11:09:34;1.48;;;1.10;;
68821;SDS011;55834;50.870;4.606;2023-04-03T11:12:11;3.10;;;1.48;;
68821;SDS011;55834;50.870;4.606;2023-04-03T11:14:42;4.75;;;1.10;;
68821;SDS011;55834;50.870;4.606;2023-04-03T11:22:27;2.10;;;1.50;;
68821;SDS011;55834;50.870;4.606;2023-04-03T11:30:17;1.63;;;0.90;;
68821;SDS011;55834;50.870;4.606;2023-04-03T11:35:21;2.97;;;1.02;;
68821;SDS011;55834;50.870;4.606;2023-04-03T11:42:46;2.05;;;0.80;;
68821;SDS011;55834;50.870;4.606;2023-04-03T11:48:05;2.73;;;1.23;;
68821;SDS011;55834;50.870;4.606;2023-04-03T12:16:19;1.02;;;0.77;;
68821;SDS011;55834;50.870;4.606;2023-04-03T12:21:14;1.45;;;0.50;;
68821;SDS011;55834;50.870;4.606;2023-04-03T12:26:47;2.05;;;1.05;;
68821;SDS011;55834;50.870;4.606;2023-04-03T12:29:38;1.33;;;1.10;;
68821;SDS011;55834;50.870;4.606;2023-04-03T12:32:31;1.77;;;0.80;;
68821;SDS011;55834;50.870;4.606;2023-04-03T12:35:23;1.08;;;0.93;;
68821;SDS011;55834;50.870;4.606;2023-04-03T12:45:43;1.95;;;0.93;;
68821;SDS011;55834;50.870;4.606;2023-04-03T12:48:21;1.35;;;0.80;;
68821;SDS011;55834;50.870;4.606;2023-04-03T12:50:51;2.72;;;1.00;;
68821;SDS011;55834;50.870;4.606;2023-04-03T12:53:18;1.45;;;1.13;;
68821;SDS011;55834;50.870;4.606;2023-04-03T12:55:47;1.95;;;0.85;;
68821;SDS011;55834;50.870;4.606;2023-04-03T12:58:19;1.17;;;1.05;;
68821;SDS011;55834;50.870;4.606;2023-04-03T13:00:46;1.45;;;0.98;;
68821;SDS011;55834;50.870;4.606;2023-04-03T13:03:22;1.80;;;0.77;;
68821;SDS011;55834;50.870;4.606;2023-04-03T13:05:51;1.38;;;1.20;;
68821;SDS011;55834;50.870;4.606;2023-04-03T13:08:19;1.80;;;1.10;;
68821;SDS011;55834;50.870;4.606;2023-04-03T13:10:53;1.92;;;1.20;;
68821;SDS011;55834;50.870;4.606;2023-04-03T13:13:23;2.45;;;1.58;;
68821;SDS011;55834;50.870;4.606;2023-04-03T13:15:48;3.30;;;0.95;;
68821;SDS011;55834;50.870;4.606;2023-04-03T13:18:26;1.95;;;1.33;;
68821;SDS011;55834;50.870;4.606;2023-04-03T13:21:02;2.05;;;0.60;;
68821;SDS011;55834;50.870;4.606;2023-04-03T13:23:51;5.65;;;1.30;;
68821;SDS011;55834;50.870;4.606;2023-04-03T13:26:20;2.63;;;1.25;;
68821;SDS011;55834;50.870;4.606;2023-04-03T13:28:47;2.28;;;1.42;;
68821;SDS011;55834;50.870;4.606;2023-04-03T13:36:36;2.50;;;1.45;;
68821;SDS011;55834;50.870;4.606;2023-04-03T13:41:39;1.50;;;1.10;;
68821;SDS011;55834;50.870;4.606;2023-04-03T13:46:51;3.20;;;1.40;;
68821;SDS011;55834;50.870;4.606;2023-04-03T13:49:18;1.55;;;0.60;;
68821;SDS011;55834;50.870;4.606;2023-04-03T13:51:56;1.30;;;1.13;;
68821;SDS011;55834;50.870;4.606;2023-04-03T13:54:23;4.28;;;1.95;;
68821;SDS011;55834;50.870;4.606;2023-04-03T13:56:54;2.80;;;1.38;;
68821;SDS011;55834;50.870;4.606;2023-04-03T14:04:19;2.40;;;1.42;;
68821;SDS011;55834;50.870;4.606;2023-04-03T14:06:46;2.60;;;0.77;;
68821;SDS011;55834;50.870;4.606;2023-04-03T14:09:12;2.25;;;1.63;;
68821;SDS011;55834;50.870;4.606;2023-04-03T14:11:38;1.75;;;1.40;;
68821;SDS011;55834;50.870;4.606;2023-04-03T14:14:09;2.65;;;0.75;;
68821;SDS011;55834;50.870;4.606;2023-04-03T14:16:39;2.10;;;1.00;;
68821;SDS011;55834;50.870;4.606;2023-04-03T14:19:09;3.00;;;1.25;;
68821;SDS011;55834;50.870;4.606;2023-04-03T14:21:42;1.15;;;0.80;;
68821;SDS011;55834;50.870;4.606;2023-04-03T14:24:07;1.43;;;1.10;;
68821;SDS011;55834;50.870;4.606;2023-04-03T14:26:33;1.33;;;1.23;;
68821;SDS011;55834;50.870;4.606;2023-04-03T14:28:58;1.08;;;0.65;;
68821;SDS011;55834;50.870;4.606;2023-04-03T14:31:24;0.82;;;0.80;;
68821;SDS011;55834;50.870;4.606;2023-04-03T14:33:50;0.68;;;0.50;;
68821;SDS011;55834;50.870;4.606;2023-04-03T14:36:25;1.90;;;0.85;;
68821;SDS011;55834;50.870;4.606;2023-04-03T14:38:53;1.17;;;1.00;;
68821;SDS011;55834;50.870;4.606;2023-04-03T14:41:20;1.25;;;0.80;;
68821;SDS011;55834;50.870;4.606;2023-04-03T14:43:48;0.80;;;0.73;;
68821;SDS011;55834;50.870;4.606;2023-04-03T14:48:46;2.58;;;1.23;;
68821;SDS011;55834;50.870;4.606;2023-04-03T14:51:12;2.70;;;1.38;;
68821;SDS011;55834;50.870;4.606;2023-04-03T14:56:24;6.70;;;3.10;;
68821;SDS011;55834;50.870;4.606;2023-04-03T14:58:55;1.98;;;0.80;;
68821;SDS011;55834;50.870;4.606;2023-04-03T15:01:23;1.35;;;0.75;;
68821;SDS011;55834;50.870;4.606;2023-04-03T15:03:49;1.95;;;0.93;;
68821;SDS011;55834;50.870;4.606;2023-04-03T15:06:14;1.07;;;0.80;;
68821;SDS011;55834;50.870;4.606;2023-04-03T15:08:41;2.97;;;1.35;;
68821;SDS011;55834;50.870;4.606;2023-04-03T15:13:33;2.40;;;1.05;;
68821;SDS011;55834;50.870;4.606;2023-04-03T15:15:59;1.67;;;0.80;;
68821;SDS011;55834;50.870;4.606;2023-04-03T15:18:25;4.75;;;1.40;;
68821;SDS011;55834;50.870;4.606;2023-04-03T15:20:54;3.45;;;1.92;;
68821;SDS011;55834;50.870;4.606;2023-04-03T15:23:20;1.58;;;1.23;;
68821;SDS011;55834;50.870;4.606;2023-04-03T15:25:46;2.53;;;1.00;;
68821;SDS011;55834;50.870;4.606;2023-04-03T15:28:18;2.45;;;0.90;;
68821;SDS011;55834;50.870;4.606;2023-04-03T15:30:43;4.68;;;1.80;;
68821;SDS011;55834;50.870;4.606;2023-04-03T15:33:09;12.73;;;6.35;;
68821;SDS011;55834;50.870;4.606;2023-04-03T15:35:36;3.08;;;1.92;;
68821;SDS011;55834;50.870;4.606;2023-04-03T15:38:01;2.07;;;1.87;;
68821;SDS011;55834;50.870;4.606;2023-04-03T15:40:26;4.60;;;2.60;;
68821;SDS011;55834;50.870;4.606;2023-04-03T15:42:52;1.73;;;1.13;;
68821;SDS011;55834;50.870;4.606;2023-04-03T15:45:17;1.20;;;1.03;;
68821;SDS011;55834;50.870;4.606;2023-04-03T15:47:43;2.85;;;1.38;;
68821;SDS011;55834;50.870;4.606;2023-04-03T15:50:08;3.03;;;1.00;;
68821;SDS011;55834;50.870;4.606;2023-04-03T15:52:36;2.83;;;1.42;;
68821;SDS011;55834;50.870;4.606;2023-04-03T15:55:02;3.03;;;1.10;;
68821;SDS011;55834;50.870;4.606;2023-04-03T15:57:28;6.03;;;2.28;;
68821;SDS011;55834;50.870;4.606;2023-04-03T15:59:54;2.53;;;0.90;;
68821;SDS011;55834;50.870;4.606;2023-04-03T16:02:21;2.10;;;1.40;;
68821;SDS011;55834;50.870;4.606;2023-04-03T16:04:46;3.03;;;1.05;;
68821;SDS011;55834;50.870;4.606;2023-04-03T16:07:12;3.10;;;1.77;;
68821;SDS011;55834;50.870;4.606;2023-04-03T16:09:37;3.17;;;1.75;;
68821;SDS011;55834;50.870;4.606;2023-04-03T16:12:03;3.63;;;1.55;;
68821;SDS011;55834;50.870;4.606;2023-04-03T16:14:28;3.90;;;1.30;;
68821;SDS011;55834;50.870;4.606;2023-04-03T16:16:55;4.70;;;1.48;;
68821;SDS011;55834;50.870;4.606;2023-04-03T16:19:21;3.53;;;1.70;;
68821;SDS011;55834;50.870;4.606;2023-04-03T16:21:47;3.72;;;1.58;;
68821;SDS011;55834;50.870;4.606;2023-04-03T16:24:13;1.75;;;1.08;;
68821;SDS011;55834;50.870;4.606;2023-04-03T16:26:39;3.33;;;1.47;;
68821;SDS011;55834;50.870;4.606;2023-04-03T16:29:04;3.97;;;1.48;;
68821;SDS011;55834;50.870;4.606;2023-04-03T16:31:29;3.60;;;1.95;;
68821;SDS011;55834;50.870;4.606;2023-04-03T16:33:57;1.88;;;1.00;;
68821;SDS011;55834;50.870;4.606;2023-04-03T16:36:23;4.30;;;1.20;;
68821;SDS011;55834;50.870;4.606;2023-04-03T16:38:49;2.53;;;1.23;;
68821;SDS011;55834;50.870;4.606;2023-04-03T16:41:15;3.58;;;1.85;;
68821;SDS011;55834;50.870;4.606;2023-04-03T16:43:40;4.83;;;2.23;;
68821;SDS011;55834;50.870;4.606;2023-04-03T16:46:05;3.60;;;1.15;;
68821;SDS011;55834;50.870;4.606;2023-04-03T16:48:31;3.33;;;2.47;;
68821;SDS011;55834;50.870;4.606;2023-04-03T16:50:56;2.77;;;1.40;;
68821;SDS011;55834;50.870;4.606;2023-04-03T16:53:22;5.00;;;2.20;;
68821;SDS011;55834;50.870;4.606;2023-04-03T16:55:48;3.08;;;1.58;;
68821;SDS011;55834;50.870;4.606;2023-04-03T16:58:14;3.40;;;1.00;;
68821;SDS011;55834;50.870;4.606;2023-04-03T17:00:40;2.33;;;1.45;;
68821;SDS011;55834;50.870;4.606;2023-04-03T17:03:06;1.85;;;1.30;;
68821;SDS011;55834;50.870;4.606;2023-04-03T17:05:32;1.98;;;1.23;;
68821;SDS011;55834;50.870;4.606;2023-04-03T17:07:57;2.20;;;1.47;;
68821;SDS011;55834;50.870;4.606;2023-04-03T17:10:22;2.20;;;1.40;;
68821;SDS011;55834;50.870;4.606;2023-04-03T17:12:48;2.92;;;1.80;;